• Join FlightAware (Why Join?)
  • Login
  • US Flag 
09:12PM EDT


 

Airport Tracker/Info


-or-


 

Live Flight TrackerFlight Track Log ✈ SWA1319 ✈ 24-Apr-2013 ✈ KBWI - KBHM

Flight Track Log - Related Links

Times and Time Zones

All times are in EDT time to prevent confusion due to time zone crossing. See the SWA1319 flight status page for this flight to view local times or setup timezone preferences in your user account.

Time Position Orientation Groundspeed Altitude Reporting Facility
EDT Latitude Longitude Course Direction KTS MPH feet Rate Location/Type
10:45AM 39.1333 -76.6667 211° Southwest 195 224 2,400  Level Potomac TRACON
10:46AM 39.1667 -76.7333 303° West 244 281 4,200 1,920 Climbing Potomac TRACON
10:47AM 39.2000 -76.8000 303° West 268 308 6,100 2,460 Climbing Potomac TRACON
10:48AM 39.2000 -76.8833 270° West 272 313 9,000 2,880 Climbing Potomac TRACON
10:49AM 39.2167 -76.9833 282° West 255 293 11,900 2,220 Climbing Potomac TRACON
10:50AM 39.2167 -77.1000 270° West 327 376 13,500 1,860 Climbing Potomac TRACON
10:51AM 39.0526 -77.2684 211° Southwest  Level FlightAware Approximate
10:51AM 39.1833 -77.1833 243° Southwest 342 394 15,500  Level Potomac TRACON
10:52AM 39.1000 -77.2500 212° Southwest 366 421 17,400 1,860 Climbing Potomac TRACON
10:53AM 39.0000 -77.3333 213° Southwest 382 440 19,300 1,620 Climbing Potomac TRACON
10:55AM 38.8050 -77.4617 207° Southwest 424 488 22,700 1,440 Climbing Washington Center
10:56AM 38.6953 -77.5414 210° Southwest 419 482 24,000 1,320 Climbing Washington Center
10:57AM 38.6022 -77.6344 218° Southwest 424 488 25,400 1,620 Climbing Washington Center
10:58AM 38.5064 -77.7356 220° Southwest 424 488 27,300 1,800 Climbing Washington Center
10:59AM 38.4419 -77.8475 234° Southwest 424 488 29,000 1,500 Climbing Washington Center
11:00AM 38.3814 -77.9650 237° Southwest 419 482 30,300 1,380 Climbing Washington Center
11:01AM 38.3225 -78.0822 237° Southwest 414 476 31,800 1,500 Climbing Washington Center
11:02AM 38.2617 -78.1964 236° Southwest 408 470 33,300 1,080 Climbing Washington Center
11:03AM 38.2031 -78.3106 237° Southwest 403 464 34,000 300 Climbing Washington Center
11:04AM 38.1442 -78.4219 236° Southwest 398 458 34,000  Level Washington Center
11:05AM 38.0928 -78.5547 244° Southwest 392 451 34,000  Level Washington Center
11:06AM 38.0567 -78.6667 248° West 385 443 34,000  Level Washington Center
11:07AM 38.0139 -78.7942 247° West 390 449 34,000  Level Washington Center
11:08AM 37.9686 -78.9186 245° Southwest 390 449 34,000  Level Washington Center
11:09AM 37.9231 -79.0586 248° West 390 449 34,000  Level Washington Center
11:10AM 37.8717 -79.1747 241° Southwest 390 449 34,000  Level Washington Center
11:11AM 37.8117 -79.2928 237° Southwest 390 449 34,000  Level Washington Center
11:12AM 37.7558 -79.4083 239° Southwest 390 449 34,000  Level Washington Center
11:13AM 37.7025 -79.5081 236° Southwest 395 455 34,000  Level Washington Center
11:14AM 37.6400 -79.6358 238° Southwest 395 455 34,000  Level Washington Center
11:15AM 37.5864 -79.7378 236° Southwest 390 449 34,000  Level Washington Center
11:16AM 37.5233 -79.8706 239° Southwest 390 449 34,000  Level Washington Center
11:17AM 37.4650 -79.9825 237° Southwest 396 456 34,000  Level Washington Center
11:18AM 37.4133 -80.0842 237° Southwest 396 456 34,000  Level Washington Center
11:19AM 37.3731 -80.1583 236° Southwest 401 461 34,000  Level Atlanta Center
11:20AM 37.3200 -80.2575 236° Southwest 389 448 34,000  Level Atlanta Center
11:21AM 37.2628 -80.3697 237° Southwest 384 442 34,000  Level Atlanta Center
11:22AM 37.2036 -80.4819 237° Southwest 384 442 34,000  Level Atlanta Center
11:23AM 37.1464 -80.5939 237° Southwest 384 442 34,000  Level Atlanta Center
11:24AM 37.0831 -80.7192 238° Southwest 384 442 34,000  Level Atlanta Center
11:25AM 37.0403 -80.8378 246° West 384 442 34,000  Level Atlanta Center
11:26AM 36.9978 -80.9592 246° West 378 435 34,000  Level Atlanta Center
11:27AM 36.9567 -81.0697 245° Southwest 384 442 34,000  Level Atlanta Center
11:28AM 36.9156 -81.1881 247° West 384 442 34,000  Level Atlanta Center
11:29AM 36.8725 -81.3092 246° West 384 442 34,000  Level Atlanta Center
11:30AM 36.8269 -81.4247 244° Southwest 384 442 34,000  Level Atlanta Center
11:31AM 36.7897 -81.5350 247° West 384 442 34,000  Level Atlanta Center
11:32AM 36.7483 -81.6606 248° West 374 430 34,000  Level Atlanta Center
11:33AM 36.7047 -81.7808 246° West 374 430 34,000  Level Atlanta Center
11:34AM 36.6589 -81.8986 244° Southwest 380 437 34,000  Level Atlanta Center
11:35AM 36.6172 -82.0161 246° West 380 437 34,000  Level Atlanta Center
11:36AM 36.5733 -82.1361 246° West 380 437 34,000  Level Atlanta Center
11:37AM 36.5272 -82.2561 244° Southwest 380 437 34,000  Level Atlanta Center
11:38AM 36.4828 -82.3733 245° Southwest 380 437 34,000  Level Atlanta Center
11:39AM 36.4344 -82.5058 246° West 380 437 34,000  Level Atlanta Center
11:40AM 36.3900 -82.6253 245° Southwest 380 437 34,000  Level Atlanta Center
11:41AM 36.3433 -82.7422 244° Southwest 380 437 34,000  Level Atlanta Center
11:42AM 36.2989 -82.8639 246° West 380 437 34,000  Level Atlanta Center
11:43AM 36.2539 -82.9831 245° Southwest 380 437 34,000  Level Atlanta Center
11:44AM 36.2089 -83.0994 244° Southwest 380 437 34,000  Level Atlanta Center
11:45AM 36.1639 -83.2183 245° Southwest 380 437 34,000  Level Atlanta Center
11:46AM 36.1208 -83.3319 245° Southwest 380 437 34,000  Level Atlanta Center
11:47AM 36.0778 -83.4478 245° Southwest 380 437 34,000  Level Atlanta Center
11:48AM 36.0406 -83.5406 244° Southwest 380 437 34,000  Level Atlanta Center
11:49AM 35.9931 -83.6692 245° Southwest 380 437 34,000  Level Atlanta Center
11:50AM 35.9494 -83.7822 245° Southwest 380 437 34,000  Level Atlanta Center
11:51AM 35.9017 -83.8953 242° Southwest 375 432 34,000  Level Atlanta Center
11:52AM 35.8350 -83.9953 231° Southwest 375 432 34,000  Level Atlanta Center
11:53AM 35.7642 -84.0925 228° Southwest 380 437 34,000  Level Atlanta Center
11:54AM 35.6953 -84.1897 229° Southwest 380 437 34,000  Level Atlanta Center
11:55AM 35.6242 -84.2867 228° Southwest 385 443 34,000  Level Atlanta Center
11:56AM 35.5550 -84.3833 229° Southwest 385 443 34,000  Level Atlanta Center
11:57AM 35.4839 -84.4825 229° Southwest 385 443 34,000  Level Atlanta Center
11:58AM 35.4125 -84.5789 228° Southwest 385 443 34,000  Level Atlanta Center
11:59AM 35.3433 -84.6728 228° Southwest 385 443 34,000  Level Atlanta Center
12:00PM 35.2739 -84.7714 229° Southwest 385 443 34,000  Level Atlanta Center
12:01PM 35.2000 -84.8750 229° Southwest 385 443 34,000  Level Atlanta Center
12:02PM 35.1264 -84.9708 227° Southwest 385 443 34,000  Level Atlanta Center
12:03PM 35.0589 -85.0664 229° Southwest 385 443 34,000  Level Atlanta Center
12:04PM 34.9869 -85.1619 227° Southwest 385 443 34,000  Level Atlanta Center
12:05PM 34.9194 -85.2547 228° Southwest 385 443 34,000  Level Atlanta Center
12:06PM 34.8517 -85.3447 227° Southwest 385 443 34,000  Level Atlanta Center
12:07PM 34.7819 -85.4372 227° Southwest 385 443 34,000  Level Atlanta Center
12:08PM 34.7139 -85.5272 227° Southwest 380 437 34,000  Level Atlanta Center
12:09PM 34.6483 -85.6169 228° Southwest 369 425 34,000 -1,440 Level Atlanta Center
12:11PM 34.5164 -85.7958 228° Southwest 358 412 29,700 -2,340 Descending Atlanta Center
12:12PM 34.4525 -85.8753 226° Southwest 363 418 27,000 -3,000 Descending Atlanta Center
12:13PM 34.3822 -85.9692 228° Southwest 368 423 23,700 -3,240 Descending Atlanta Center
12:14PM 34.2894 -86.0300 208° Southwest 376 433 20,600 -3,000 Descending Atlanta Center
12:15PM 34.1950 -86.0706 200° South 376 433 17,800 -2,940 Descending Atlanta Center
12:16PM 34.1044 -86.1086 199° South 362 417 14,800 -3,240 Descending Atlanta Center
12:17PM 34.0222 -86.1592 207° Southwest 313 360 11,800 -2,400 Descending Atlanta Center
12:18PM 33.9817 -86.2108 227° Southwest 304 350 11,000 -720 Descending Atlanta Center
12:18PM 33.9711 -86.2281 234° Southwest 310 357 11,000  Level Atlanta Center
12:19PM 33.9283 -86.2744 222° Southwest 231 266 11,000  Level Atlanta Center
12:19PM 33.9200 -86.2817 216° Southwest 281 323 11,000 -240 Level Atlanta Center
12:20PM 33.8858 -86.3258 227° Southwest 212 244 10,800 -840 Descending Atlanta Center
12:20PM 33.8750 -86.3356 217° Southwest 252 290 10,200 -2,400 Descending Atlanta Center
12:21PM 33.8303 -86.3869 224° Southwest 254 292 8,400 -2,040 Descending Atlanta Center
12:21PM 33.8239 -86.3917 212° Southwest 247 284 8,200 -1,380 Descending Atlanta Center
12:22PM 33.7792 -86.4431 224° Southwest 254 292 7,000 -1,440 Descending Atlanta Center
12:22PM 33.7728 -86.4478 212° Southwest 252 290 6,800 -1,200 Descending Atlanta Center
12:23PM 33.7281 -86.4992 224° Southwest 245 282 5,800 -1,200 Descending Atlanta Center
12:23PM 33.7236 -86.5014 203° Southwest 245 282 5,600 -1,200 Descending Atlanta Center
12:24PM 33.6811 -86.5478 222° Southwest 231 266 4,600 -1,200 Descending Atlanta Center
12:24PM 33.6789 -86.5525 241° Southwest 239 275 4,400 -1,620 Descending Atlanta Center
12:25PM 33.6486 -86.6092 237° Southwest 203 234 3,000 -1,440 Descending Atlanta Center
12:25PM 33.6464 -86.6117 223° Southwest 228 262 3,000 -420 Level Atlanta Center
12:26PM 33.6225 -86.6508 234° Southwest 137 158 2,600 -720 Descending Atlanta Center
12:27PM 33.6008 -86.6925 238° Southwest 122 140 1,700 -780 Descending Atlanta Center
12:28PM 33.5792 -86.7292 235° Southwest 133 153 1,000 -720 Descending Atlanta Center
12:30PM 33.5639 -86.7523 140° Southeast  Level Estimated
12:37PM 33.5639 -86.7523 140° Southeast  Level Estimated